createdAt,value
2019-06-08T00:00:09.104Z,20.40
2019-06-08T00:02:40.131Z,20.40
2019-06-08T00:05:12.471Z,20.30
2019-06-08T00:07:43.409Z,20.20
2019-06-08T00:10:14.703Z,20.20
2019-06-08T00:12:45.983Z,20.10
2019-06-08T00:15:18.549Z,20.00
2019-06-08T00:17:49.832Z,19.90
2019-06-08T00:20:21.874Z,19.80
2019-06-08T00:22:53.194Z,19.80
2019-06-08T00:25:24.297Z,19.80
2019-06-08T00:27:55.069Z,19.80
2019-06-08T00:30:25.888Z,19.80
2019-06-08T00:32:56.794Z,19.70
2019-06-08T00:35:27.828Z,19.70
2019-06-08T00:37:58.722Z,19.80
2019-06-08T00:40:29.715Z,19.80
2019-06-08T00:43:00.500Z,19.80
2019-06-08T00:45:31.545Z,19.80
2019-06-08T00:48:02.478Z,19.80
2019-06-08T00:50:33.373Z,19.80
2019-06-08T00:53:04.378Z,19.80
2019-06-08T00:55:35.414Z,19.90
2019-06-08T00:58:06.365Z,19.80
2019-06-08T01:00:37.390Z,19.80
2019-06-08T01:03:08.518Z,19.80
2019-06-08T01:05:39.413Z,19.80
2019-06-08T01:08:10.464Z,19.70
2019-06-08T01:10:41.600Z,19.70
2019-06-08T01:13:12.398Z,19.70
2019-06-08T01:15:43.293Z,19.70
2019-06-08T01:18:14.243Z,19.60
2019-06-08T01:20:45.158Z,19.60
2019-06-08T01:23:16.034Z,19.60
2019-06-08T01:25:47.000Z,19.60
2019-06-08T01:28:17.854Z,19.40
2019-06-08T01:30:48.971Z,19.30
2019-06-08T01:33:20.410Z,19.30
2019-06-08T01:35:51.362Z,19.20
2019-06-08T01:38:22.927Z,19.20
2019-06-08T01:40:53.864Z,19.10
2019-06-08T01:43:25.811Z,19.10
2019-06-08T01:45:56.798Z,19.10
2019-06-08T01:48:28.195Z,19.10
2019-06-08T01:50:59.321Z,19.20
2019-06-08T01:53:31.130Z,19.20
2019-06-08T01:56:01.968Z,19.20
2019-06-08T01:58:33.511Z,19.20
2019-06-08T02:01:04.732Z,19.20
2019-06-08T02:03:36.074Z,19.10
2019-06-08T02:06:07.210Z,19.10
2019-06-08T02:08:38.108Z,19.10
2019-06-08T02:11:09.395Z,19.10
2019-06-08T02:13:40.267Z,19.10
2019-06-08T02:16:11.130Z,19.20
2019-06-08T02:18:50.265Z,19.20
2019-06-08T02:21:14.688Z,19.10
2019-06-08T02:23:45.584Z,19.10
2019-06-08T02:26:16.469Z,19.10
2019-06-08T02:28:47.359Z,19.10
2019-06-08T02:31:18.214Z,19.00
2019-06-08T02:33:49.088Z,19.00
2019-06-08T02:36:19.939Z,19.00
2019-06-08T02:38:50.765Z,18.90
2019-06-08T02:41:21.825Z,18.80
2019-06-08T02:43:52.709Z,18.80
2019-06-08T02:46:23.575Z,18.70
2019-06-08T02:49:04.034Z,18.60
2019-06-08T02:51:28.745Z,18.50
2019-06-08T02:54:00.310Z,18.50
2019-06-08T02:56:31.977Z,18.40
2019-06-08T02:59:04.965Z,18.40
2019-06-08T03:01:38.848Z,18.30
2019-06-08T03:04:09.389Z,18.20
2019-06-08T03:06:42.174Z,18.20
2019-06-08T03:09:13.212Z,18.20
2019-06-08T03:11:44.993Z,18.20
2019-06-08T03:14:16.820Z,18.20
2019-06-08T03:16:47.649Z,18.30
2019-06-08T03:19:37.627Z,18.20
2019-06-08T03:22:11.038Z,18.20
2019-06-08T03:24:41.648Z,18.20
2019-06-08T03:27:12.965Z,18.20
2019-06-08T03:29:44.166Z,18.30
2019-06-08T03:32:15.120Z,18.30
2019-06-08T03:34:54.322Z,18.30
2019-06-08T03:37:18.939Z,18.30
2019-06-08T03:39:49.785Z,18.30
2019-06-08T03:42:20.659Z,18.30
2019-06-08T03:44:51.705Z,18.30
2019-06-08T03:47:22.626Z,18.30
2019-06-08T03:49:57.423Z,18.20
2019-06-08T03:52:26.164Z,18.30
2019-06-08T03:54:57.184Z,18.20
2019-06-08T03:57:28.074Z,18.20
2019-06-08T03:59:59.326Z,18.20
2019-06-08T04:02:30.221Z,18.30
2019-06-08T04:05:01.008Z,18.20
2019-06-08T04:07:31.955Z,18.20
2019-06-08T04:10:03.209Z,18.20
2019-06-08T04:12:34.051Z,18.20
2019-06-08T04:15:05.392Z,18.10
2019-06-08T04:17:37.813Z,18.00
2019-06-08T04:20:11.447Z,18.00
2019-06-08T04:22:47.231Z,18.00
2019-06-08T04:25:19.581Z,18.20
2019-06-08T04:27:51.061Z,18.20
2019-06-08T04:30:22.189Z,18.20
2019-06-08T04:32:53.068Z,18.20
2019-06-08T04:35:23.905Z,18.20
2019-06-08T04:37:54.771Z,18.20
2019-06-08T04:40:25.867Z,18.30
2019-06-08T04:42:56.823Z,18.30
2019-06-08T04:45:27.728Z,18.30
2019-06-08T04:47:58.999Z,18.40
2019-06-08T04:50:29.854Z,18.50
2019-06-08T04:53:00.840Z,18.60
2019-06-08T04:55:32.007Z,18.60
2019-06-08T04:58:02.967Z,18.60
2019-06-08T05:00:33.880Z,18.70
2019-06-08T05:03:04.830Z,18.70
2019-06-08T05:05:35.739Z,18.70
2019-06-08T05:08:06.722Z,18.80
2019-06-08T05:10:39.090Z,18.90
2019-06-08T05:13:10.269Z,19.00
2019-06-08T05:15:41.502Z,19.10
2019-06-08T05:18:12.819Z,19.20
2019-06-08T05:20:46.057Z,19.30
2019-06-08T05:23:16.520Z,19.30
2019-06-08T05:25:47.388Z,19.30
2019-06-08T05:28:18.419Z,19.20
2019-06-08T05:30:49.608Z,19.30
2019-06-08T05:33:20.704Z,19.30
2019-06-08T05:35:51.685Z,19.50
2019-06-08T05:38:22.912Z,19.60
2019-06-08T05:40:53.703Z,19.70
2019-06-08T05:43:24.719Z,19.70
2019-06-08T05:45:55.668Z,19.80
2019-06-08T05:48:26.543Z,19.90
2019-06-08T05:51:04.009Z,20.00
2019-06-08T05:53:29.828Z,20.10
2019-06-08T05:56:00.963Z,20.30
2019-06-08T05:58:31.809Z,20.40
2019-06-08T06:01:02.921Z,20.50
2019-06-08T06:03:33.800Z,20.50
2019-06-08T06:06:04.619Z,20.50
2019-06-08T06:08:35.574Z,20.60
2019-06-08T06:11:06.474Z,20.80
2019-06-08T06:13:37.298Z,20.80
2019-06-08T06:16:08.358Z,20.90
2019-06-08T06:18:39.204Z,21.00
2019-06-08T06:21:12.083Z,21.10
2019-06-08T06:23:43.172Z,21.10
2019-06-08T06:26:14.104Z,21.20
2019-06-08T06:28:45.639Z,21.10
2019-06-08T06:31:16.867Z,21.00
2019-06-08T06:33:47.997Z,21.00
2019-06-08T06:36:19.086Z,20.90
2019-06-08T06:38:50.555Z,20.80
2019-06-08T06:41:21.702Z,21.00
2019-06-08T06:43:52.633Z,21.00
2019-06-08T06:46:23.733Z,21.00
2019-06-08T06:48:54.554Z,21.00
2019-06-08T06:51:26.835Z,21.10
2019-06-08T06:53:58.069Z,21.20
2019-06-08T06:56:28.815Z,21.40
2019-06-08T06:58:59.754Z,21.50
2019-06-08T07:01:30.782Z,21.40
2019-06-08T07:04:02.773Z,21.30
2019-06-08T07:06:33.609Z,21.40
2019-06-08T07:09:05.499Z,21.50
2019-06-08T07:11:36.499Z,21.60
2019-06-08T07:14:07.335Z,21.90
2019-06-08T07:16:38.311Z,22.00
2019-06-08T07:19:09.209Z,21.90
2019-06-08T07:21:42.101Z,21.60
2019-06-08T07:24:12.784Z,21.90
2019-06-08T07:26:43.814Z,22.00
2019-06-08T07:29:14.698Z,21.80
2019-06-08T07:31:46.919Z,21.60
2019-06-08T07:34:19.178Z,21.60
2019-06-08T07:36:51.220Z,21.70
2019-06-08T07:39:22.384Z,21.70
2019-06-08T07:41:54.292Z,21.90
2019-06-08T07:44:25.524Z,22.00
2019-06-08T07:46:56.594Z,21.80
2019-06-08T07:49:27.489Z,22.10
2019-06-08T07:52:09.205Z,22.20
2019-06-08T07:54:30.869Z,22.30
2019-06-08T07:57:01.859Z,22.30
2019-06-08T07:59:32.890Z,22.50
2019-06-08T08:02:04.896Z,22.50
2019-06-08T08:04:35.729Z,22.30
2019-06-08T08:07:06.718Z,22.30
2019-06-08T08:09:37.869Z,22.50
2019-06-08T08:12:12.041Z,22.50
2019-06-08T08:14:41.440Z,22.60
2019-06-08T08:17:12.643Z,22.60
2019-06-08T08:19:43.580Z,22.80
2019-06-08T08:22:25.037Z,23.00
2019-06-08T08:24:50.544Z,23.00
2019-06-08T08:27:21.466Z,23.00
2019-06-08T08:29:53.270Z,22.80
2019-06-08T08:32:24.318Z,22.90
2019-06-08T08:34:58.405Z,23.10
2019-06-08T08:37:28.172Z,23.50
2019-06-08T08:40:01.344Z,23.40
2019-06-08T08:42:31.473Z,23.50
2019-06-08T08:45:05.186Z,23.40
2019-06-08T08:47:34.943Z,23.50
2019-06-08T08:50:07.546Z,23.30
2019-06-08T08:52:40.853Z,23.50
2019-06-08T08:55:12.229Z,23.50
2019-06-08T08:57:43.074Z,23.70
2019-06-08T09:00:14.484Z,23.60
2019-06-08T09:02:45.417Z,23.60
2019-06-08T09:05:18.116Z,23.80
2019-06-08T09:07:49.179Z,23.80
2019-06-08T09:10:20.576Z,23.70
2019-06-08T09:12:53.466Z,23.70
2019-06-08T09:15:24.174Z,23.80
2019-06-08T09:17:56.465Z,23.80
2019-06-08T09:23:27.826Z,24.10
2019-06-08T09:26:05.788Z,24.30
2019-06-08T09:28:30.958Z,24.70
2019-06-08T09:31:02.795Z,24.70
2019-06-08T09:33:34.250Z,24.90
2019-06-08T09:36:07.684Z,24.80
2019-06-08T09:38:38.660Z,24.80
2019-06-08T09:41:09.795Z,24.90
2019-06-08T09:43:40.634Z,25.10
2019-06-08T09:46:11.616Z,24.90
2019-06-08T09:48:42.509Z,25.10
2019-06-08T09:51:13.359Z,25.10
2019-06-08T09:53:44.207Z,25.10
2019-06-08T09:56:18.226Z,24.90
2019-06-08T09:58:51.162Z,25.10
2019-06-08T10:01:20.540Z,25.20
2019-06-08T10:03:51.383Z,25.30
2019-06-08T10:06:22.166Z,25.80
2019-06-08T10:08:54.262Z,26.00
2019-06-08T10:11:27.625Z,26.10
2019-06-08T10:14:01.631Z,26.30
2019-06-08T10:16:31.223Z,26.50
2019-06-08T10:19:04.914Z,26.80
2019-06-08T10:21:34.739Z,27.10
2019-06-08T10:24:08.780Z,27.20
2019-06-08T10:26:38.204Z,26.60
2019-06-08T10:29:10.376Z,25.50
2019-06-08T10:31:43.971Z,25.60
2019-06-08T10:34:16.636Z,25.90
2019-06-08T10:36:47.737Z,25.90
2019-06-08T10:39:18.619Z,25.50
2019-06-08T10:41:51.688Z,25.60
2019-06-08T10:44:21.973Z,25.50
2019-06-08T10:46:52.835Z,25.60
2019-06-08T10:49:23.810Z,25.90
2019-06-08T10:51:54.739Z,25.80
2019-06-08T10:54:27.708Z,25.70
2019-06-08T10:57:00.303Z,25.50
2019-06-08T10:59:30.814Z,25.60
2019-06-08T11:02:05.161Z,25.50
2019-06-08T11:04:34.296Z,25.70
2019-06-08T11:07:12.462Z,25.90
2019-06-08T11:09:37.554Z,25.90
2019-06-08T11:12:15.333Z,25.40
2019-06-08T11:14:42.380Z,25.40
2019-06-08T11:17:13.259Z,25.20
2019-06-08T11:19:44.182Z,25.20
2019-06-08T11:22:15.307Z,25.80
2019-06-08T11:24:48.576Z,26.00
2019-06-08T11:27:19.610Z,26.30
2019-06-08T11:29:50.497Z,26.10
2019-06-08T11:32:21.624Z,26.30
2019-06-08T11:34:52.489Z,26.40
2019-06-08T11:37:23.345Z,26.40
2019-06-08T11:39:54.199Z,26.60
2019-06-08T11:42:28.029Z,27.10
2019-06-08T11:44:58.653Z,27.40
2019-06-08T11:47:31.030Z,27.00
2019-06-08T11:50:02.837Z,27.50
2019-06-08T11:52:34.271Z,27.90
2019-06-08T11:55:05.528Z,28.00
2019-06-08T11:57:40.481Z,28.40
2019-06-08T12:00:23.953Z,28.40
2019-06-08T12:02:45.522Z,28.00
2019-06-08T12:05:18.083Z,27.90
2019-06-08T12:07:48.814Z,27.60
2019-06-08T12:10:19.852Z,27.80
2019-06-08T12:12:50.719Z,28.20
2019-06-08T12:15:21.686Z,28.30
2019-06-08T12:17:52.509Z,28.30
2019-06-08T12:20:24.411Z,27.90
2019-06-08T12:22:55.409Z,28.00
2019-06-08T12:25:26.459Z,28.10
2019-06-08T12:27:58.555Z,28.20
2019-06-08T12:30:29.946Z,28.30
2019-06-08T12:33:00.809Z,28.40
2019-06-08T12:35:31.675Z,28.60
2019-06-08T12:38:02.664Z,28.30
2019-06-08T12:40:33.703Z,28.60
2019-06-08T12:43:04.494Z,28.80
2019-06-08T12:45:37.990Z,29.20
2019-06-08T12:48:13.992Z,29.30
2019-06-08T12:50:41.013Z,28.60
2019-06-08T12:53:15.979Z,28.80
2019-06-08T12:55:44.629Z,29.10
2019-06-08T12:58:17.123Z,29.20
2019-06-08T13:00:48.345Z,29.60
2019-06-08T13:03:19.484Z,29.70
2019-06-08T13:05:50.340Z,29.30
2019-06-08T13:08:21.841Z,29.20
2019-06-08T13:10:53.179Z,29.30
2019-06-08T13:13:24.619Z,29.50
2019-06-08T13:15:57.901Z,29.60
2019-06-08T13:18:27.969Z,29.10
2019-06-08T13:21:03.278Z,30.20
2019-06-08T13:23:31.253Z,31.60
2019-06-08T13:26:02.169Z,33.50
2019-06-08T13:28:33.259Z,33.60
2019-06-08T13:31:04.509Z,33.30
2019-06-08T13:33:35.354Z,34.20
2019-06-08T13:36:06.334Z,35.10
2019-06-08T13:38:38.067Z,35.30
2019-06-08T13:41:08.896Z,34.70
2019-06-08T13:43:40.533Z,34.70
2019-06-08T13:46:11.750Z,34.40
2019-06-08T13:48:42.524Z,34.10
2019-06-08T13:51:13.912Z,33.80
2019-06-08T13:53:47.870Z,33.20
2019-06-08T13:56:20.691Z,34.00
2019-06-08T13:58:50.810Z,34.90
2019-06-08T14:01:21.870Z,35.70
2019-06-08T14:03:53.239Z,36.20
2019-06-08T14:06:24.971Z,37.40
2019-06-08T14:08:57.857Z,37.70
2019-06-08T14:11:28.645Z,37.60
2019-06-08T14:14:01.211Z,37.00
2019-06-08T14:16:31.889Z,37.40
2019-06-08T14:19:02.896Z,38.40
2019-06-08T14:21:38.601Z,37.40
2019-06-08T14:24:07.743Z,36.80
2019-06-08T14:26:38.985Z,35.20
2019-06-08T14:29:11.904Z,34.70
2019-06-08T14:31:43.879Z,35.20
2019-06-08T14:34:18.684Z,33.40
2019-06-08T14:36:49.861Z,32.40
2019-06-08T14:39:21.661Z,32.30
2019-06-08T14:41:53.079Z,33.60
2019-06-08T14:44:24.058Z,34.00
2019-06-08T14:46:55.124Z,33.70
2019-06-08T14:49:30.714Z,33.30
2019-06-08T14:51:58.129Z,33.60
2019-06-08T14:54:33.280Z,33.50
2019-06-08T14:57:01.099Z,34.60
2019-06-08T14:59:31.871Z,35.50
2019-06-08T15:02:02.837Z,36.80
2019-06-08T15:04:36.645Z,37.40
2019-06-08T15:07:09.360Z,36.50
2019-06-08T15:09:38.544Z,35.30
2019-06-08T15:12:09.560Z,36.20
2019-06-08T15:14:40.434Z,36.50
2019-06-08T15:17:11.299Z,37.00
2019-06-08T15:19:42.079Z,37.20
2019-06-08T15:22:13.029Z,36.30
2019-06-08T15:24:43.839Z,36.20
2019-06-08T15:27:14.808Z,37.10
2019-06-08T15:29:47.730Z,37.20
2019-06-08T15:32:18.439Z,35.70
2019-06-08T15:34:50.955Z,34.30
2019-06-08T15:37:21.604Z,34.20
2019-06-08T15:39:52.368Z,34.00
2019-06-08T15:42:24.214Z,35.10
2019-06-08T15:44:57.592Z,36.10
2019-06-08T15:47:28.256Z,37.00
2019-06-08T15:49:59.164Z,35.90
2019-06-08T15:52:32.567Z,35.10
2019-06-08T15:55:02.410Z,35.20
2019-06-08T15:57:37.872Z,35.10
2019-06-08T16:00:09.592Z,35.60
2019-06-08T16:02:38.843Z,35.60
2019-06-08T16:05:10.466Z,35.30
2019-06-08T16:07:41.383Z,35.40
2019-06-08T16:10:12.128Z,35.40
2019-06-08T16:12:42.883Z,36.30
2019-06-08T16:15:13.814Z,36.10
2019-06-08T16:17:44.639Z,36.30
2019-06-08T16:20:15.589Z,36.70
2019-06-08T16:22:46.503Z,36.40
2019-06-08T16:25:17.464Z,34.60
2019-06-08T16:27:49.509Z,34.10
2019-06-08T16:30:20.599Z,35.00
2019-06-08T16:32:51.439Z,35.10
2019-06-08T16:35:22.240Z,34.50
2019-06-08T16:37:53.439Z,34.50
2019-06-08T16:40:24.163Z,35.00
2019-06-08T16:42:54.943Z,35.20
2019-06-08T16:45:26.873Z,34.50
2019-06-08T16:47:57.768Z,34.60
2019-06-08T16:50:28.588Z,34.60
2019-06-08T16:52:59.909Z,35.50
2019-06-08T16:55:31.957Z,35.50
2019-06-08T16:58:03.309Z,35.30
2019-06-08T17:00:38.412Z,35.40
2019-06-08T17:03:06.651Z,35.90
2019-06-08T17:05:38.526Z,35.40
2019-06-08T17:08:09.408Z,35.10
2019-06-08T17:10:41.135Z,35.40
2019-06-08T17:13:12.226Z,35.50
2019-06-08T17:15:43.221Z,35.30
2019-06-08T17:18:13.954Z,35.50
2019-06-08T17:20:44.655Z,36.00
2019-06-08T17:23:15.340Z,36.20
2019-06-08T17:25:46.289Z,35.60
2019-06-08T17:28:17.349Z,35.80
2019-06-08T17:30:48.239Z,35.80
2019-06-08T17:33:19.341Z,34.90
2019-06-08T17:35:50.319Z,34.80
2019-06-08T17:38:21.024Z,34.90
2019-06-08T17:40:51.896Z,34.50
2019-06-08T17:43:22.761Z,35.00
2019-06-08T17:45:53.469Z,35.90
2019-06-08T17:48:24.326Z,35.40
2019-06-08T17:50:55.252Z,34.40
2019-06-08T17:53:26.064Z,34.40
2019-06-08T17:55:56.864Z,34.20
2019-06-08T17:58:27.714Z,34.60
2019-06-08T18:00:58.749Z,35.50
2019-06-08T18:03:29.599Z,35.30
2019-06-08T18:06:00.484Z,34.90
2019-06-08T18:08:31.385Z,33.70
2019-06-08T18:11:02.205Z,33.50
2019-06-08T18:13:33.974Z,33.20
2019-06-08T18:16:04.779Z,32.30
2019-06-08T18:18:39.192Z,31.80
2019-06-08T18:21:09.569Z,31.80
2019-06-08T18:23:41.848Z,31.50
2019-06-08T18:26:12.909Z,31.30
2019-06-08T18:28:45.222Z,30.70
2019-06-08T18:31:18.111Z,30.60
2019-06-08T18:33:50.371Z,30.10
2019-06-08T18:36:21.469Z,30.00
2019-06-08T18:38:52.463Z,29.30
2019-06-08T18:41:23.280Z,28.70
2019-06-08T18:43:54.189Z,28.40
2019-06-08T18:46:27.213Z,27.70
2019-06-08T18:48:58.294Z,27.40
2019-06-08T18:51:29.363Z,26.90
2019-06-08T18:54:11.364Z,26.60
2019-06-08T18:56:33.014Z,26.20
2019-06-08T18:59:04.284Z,26.00
2019-06-08T19:01:37.889Z,25.60
2019-06-08T19:04:08.049Z,25.40
2019-06-08T19:06:41.212Z,25.30
2019-06-08T19:09:13.326Z,25.10
2019-06-08T19:11:48.412Z,25.00
2019-06-08T19:14:20.848Z,24.80
2019-06-08T19:16:54.779Z,24.70
2019-06-08T19:19:24.594Z,24.60
2019-06-08T19:21:57.870Z,24.60
2019-06-08T19:24:28.439Z,24.50
2019-06-08T19:26:59.951Z,24.40
2019-06-08T19:29:31.379Z,24.30
2019-06-08T19:32:02.419Z,24.20
2019-06-08T19:34:33.642Z,24.10
2019-06-08T19:37:04.794Z,23.90
2019-06-08T19:39:36.248Z,23.50
2019-06-08T19:42:08.084Z,23.40
2019-06-08T19:44:46.653Z,23.40
2019-06-08T19:47:11.799Z,23.40
2019-06-08T19:49:42.893Z,23.40
2019-06-08T19:52:14.123Z,23.30
2019-06-08T19:54:47.141Z,23.40
2019-06-08T19:57:17.670Z,23.30
2019-06-08T19:59:49.635Z,23.20
2019-06-08T20:02:20.782Z,23.20
2019-06-08T20:04:53.289Z,23.10
2019-06-08T20:07:24.709Z,23.00
2019-06-08T20:09:57.101Z,22.90
2019-06-08T20:12:28.794Z,22.80
2019-06-08T20:15:01.490Z,22.70
2019-06-08T20:17:32.529Z,22.70
2019-06-08T20:20:03.295Z,22.60
2019-06-08T20:22:37.312Z,22.50
2019-06-08T20:25:10.435Z,22.50
2019-06-08T20:27:41.045Z,22.50
2019-06-08T20:30:12.461Z,22.50
2019-06-08T20:32:44.447Z,22.60
2019-06-08T20:35:17.435Z,22.70
2019-06-08T20:37:48.169Z,22.60
2019-06-08T20:40:18.998Z,22.60
2019-06-08T20:42:53.274Z,22.40
2019-06-08T20:45:22.494Z,22.30
2019-06-08T20:47:53.911Z,22.20
2019-06-08T20:50:27.020Z,22.10
2019-06-08T20:52:57.797Z,22.20
2019-06-08T20:55:28.754Z,22.10
2019-06-08T20:57:59.494Z,22.00
2019-06-08T21:00:30.424Z,22.00
2019-06-08T21:03:03.002Z,22.00
2019-06-08T21:05:33.554Z,21.90
2019-06-08T21:08:08.124Z,21.90
2019-06-08T21:10:37.950Z,21.90
2019-06-08T21:13:09.199Z,21.80
2019-06-08T21:15:40.102Z,21.60
2019-06-08T21:18:10.949Z,21.60
2019-06-08T21:20:42.018Z,21.50
2019-06-08T21:23:12.909Z,21.40
2019-06-08T21:25:43.669Z,21.30
2019-06-08T21:28:17.055Z,21.20
2019-06-08T21:30:51.449Z,21.20
2019-06-08T21:33:19.639Z,21.20
2019-06-08T21:35:52.515Z,21.10
2019-06-08T21:38:24.251Z,21.10
2019-06-08T21:41:00.268Z,23.50
2019-06-08T21:43:28.162Z,26.40
2019-06-08T21:46:00.908Z,27.60
2019-06-08T21:48:31.383Z,28.20
2019-06-08T21:51:02.144Z,28.30
2019-06-08T21:53:32.854Z,28.40
2019-06-08T21:56:03.689Z,29.30
2019-06-08T21:58:34.599Z,28.70
2019-06-08T22:01:07.348Z,28.70
2019-06-08T22:03:38.207Z,28.60
2019-06-08T22:06:09.223Z,29.30
2019-06-08T22:08:40.140Z,29.70
2019-06-08T22:11:11.269Z,29.80
2019-06-08T22:13:42.085Z,29.50
2019-06-08T22:16:12.973Z,29.80
2019-06-08T22:18:43.864Z,29.90
2019-06-08T22:21:18.055Z,30.00
2019-06-08T22:23:48.003Z,30.10
2019-06-08T22:26:18.788Z,29.80
2019-06-08T22:28:49.654Z,29.40
2019-06-08T22:31:23.155Z,29.00
2019-06-08T22:33:54.239Z,28.80
2019-06-08T22:36:27.469Z,28.90
2019-06-08T22:39:00.606Z,28.00
2019-06-08T22:41:30.638Z,25.60
2019-06-08T22:44:01.498Z,24.40
2019-06-08T22:46:32.348Z,27.70
2019-06-08T22:49:04.025Z,28.00
2019-06-08T22:51:34.883Z,28.20
2019-06-08T22:54:07.827Z,28.50
2019-06-08T22:56:38.146Z,28.60
2019-06-08T22:59:09.230Z,28.40
2019-06-08T23:01:40.151Z,28.70
2019-06-08T23:04:11.410Z,28.20
2019-06-08T23:06:42.448Z,28.60
2019-06-08T23:09:13.468Z,27.90
2019-06-08T23:11:44.373Z,28.50
2019-06-08T23:14:15.172Z,28.90
2019-06-08T23:16:47.204Z,28.70
2019-06-08T23:19:18.464Z,28.90
2019-06-08T23:21:49.229Z,29.10
2019-06-08T23:24:19.913Z,29.20
2019-06-08T23:26:50.744Z,29.20
2019-06-08T23:29:21.733Z,27.90
2019-06-08T23:31:52.714Z,27.50
2019-06-08T23:34:24.080Z,27.70
2019-06-08T23:36:59.127Z,28.40
2019-06-08T23:39:28.459Z,27.40
2019-06-08T23:41:59.644Z,28.30
2019-06-08T23:44:30.528Z,28.30
2019-06-08T23:47:02.768Z,28.70
2019-06-08T23:49:34.119Z,28.60
2019-06-08T23:52:06.315Z,28.40
2019-06-08T23:54:37.431Z,28.40
2019-06-08T23:57:10.063Z,28.40
2019-06-08T23:59:40.809Z,28.20
